createdAt,value
2017-11-14T00:00:22.657Z,3.10
2017-11-14T00:02:50.132Z,3.40
2017-11-14T00:05:18.365Z,3.00
2017-11-14T00:07:46.033Z,2.57
2017-11-14T00:10:13.813Z,2.50
2017-11-14T00:12:41.283Z,3.10
2017-11-14T00:15:09.532Z,2.73
2017-11-14T00:17:37.013Z,3.33
2017-11-14T00:20:05.042Z,2.60
2017-11-14T00:22:34.075Z,2.77
2017-11-14T00:25:02.353Z,2.30
2017-11-14T00:27:30.657Z,2.63
2017-11-14T00:29:58.180Z,2.30
2017-11-14T00:32:25.697Z,3.03
2017-11-14T00:34:53.226Z,2.27
2017-11-14T00:37:20.683Z,2.50
2017-11-14T00:39:48.216Z,1.97
2017-11-14T00:42:16.475Z,1.70
2017-11-14T00:44:45.450Z,2.17
2017-11-14T00:47:12.933Z,1.83
2017-11-14T00:49:40.412Z,1.57
2017-11-14T00:52:08.650Z,1.97
2017-11-14T00:54:36.173Z,2.40
2017-11-14T00:57:03.652Z,1.60
2017-11-14T00:59:31.120Z,1.57
2017-11-14T01:01:58.688Z,2.23
2017-11-14T01:04:26.156Z,2.40
2017-11-14T01:06:54.376Z,2.70
2017-11-14T01:09:21.879Z,2.17
2017-11-14T01:11:49.435Z,2.10
2017-11-14T01:14:16.880Z,1.50
2017-11-14T01:16:46.877Z,2.27
2017-11-14T01:19:14.373Z,1.80
2017-11-14T01:21:41.832Z,1.73
2017-11-14T01:24:10.073Z,3.10
2017-11-14T01:26:37.536Z,2.40
2017-11-14T01:29:04.993Z,1.83
2017-11-14T01:31:32.477Z,2.07
2017-11-14T01:33:59.962Z,1.63
2017-11-14T01:36:27.444Z,2.00
2017-11-14T01:38:55.955Z,1.77
2017-11-14T01:41:23.418Z,1.50
2017-11-14T01:43:50.902Z,1.33
2017-11-14T01:46:19.157Z,1.73
2017-11-14T01:48:47.447Z,1.50
2017-11-14T01:51:15.706Z,1.57
2017-11-14T01:53:43.944Z,1.60
2017-11-14T01:56:11.429Z,1.30
2017-11-14T01:58:39.669Z,1.20
2017-11-14T02:01:07.178Z,1.27
2017-11-14T02:03:34.631Z,0.80
2017-11-14T02:06:02.184Z,1.37
2017-11-14T02:08:30.423Z,1.30
2017-11-14T02:10:57.920Z,1.10
2017-11-14T02:13:26.808Z,1.73
2017-11-14T02:15:54.296Z,1.50
2017-11-14T02:18:22.544Z,1.13
2017-11-14T02:20:50.008Z,1.20
2017-11-14T02:23:18.283Z,1.30
2017-11-14T02:25:46.600Z,1.40
2017-11-14T02:28:14.064Z,1.17
2017-11-14T02:30:41.576Z,1.70
2017-11-14T02:33:09.030Z,1.90
2017-11-14T02:35:37.255Z,1.03
2017-11-14T02:38:04.774Z,0.90
2017-11-14T02:40:33.004Z,1.20
2017-11-14T02:43:00.465Z,1.20
2017-11-14T02:45:27.953Z,0.90
2017-11-14T02:47:56.214Z,1.80
2017-11-14T02:50:25.428Z,1.17
2017-11-14T02:52:53.674Z,1.13
2017-11-14T02:55:21.125Z,1.23
2017-11-14T02:57:48.591Z,1.70
2017-11-14T03:00:16.047Z,1.80
2017-11-14T03:02:43.519Z,1.57
2017-11-14T03:05:10.966Z,1.37
2017-11-14T03:07:39.004Z,1.40
2017-11-14T03:10:07.269Z,2.50
2017-11-14T03:12:34.787Z,1.50
2017-11-14T03:15:03.025Z,1.60
2017-11-14T03:17:30.485Z,1.93
2017-11-14T03:19:57.968Z,1.70
2017-11-14T03:22:25.432Z,1.90
2017-11-14T03:24:53.670Z,2.17
2017-11-14T03:27:21.141Z,2.30
2017-11-14T03:29:48.616Z,1.60
2017-11-14T03:32:16.069Z,2.00
2017-11-14T03:34:43.524Z,1.47
2017-11-14T03:37:12.512Z,1.60
2017-11-14T03:39:42.292Z,1.80
2017-11-14T03:42:09.777Z,1.67
2017-11-14T03:44:37.244Z,1.50
2017-11-14T03:47:05.606Z,1.70
2017-11-14T03:49:33.077Z,1.97
2017-11-14T03:52:01.225Z,2.20
2017-11-14T03:54:28.689Z,1.80
2017-11-14T03:56:56.166Z,1.90
2017-11-14T03:59:23.649Z,2.10
2017-11-14T04:01:51.129Z,1.90
2017-11-14T04:04:18.589Z,1.97
2017-11-14T04:06:46.061Z,2.67
2017-11-14T04:09:13.574Z,1.73
2017-11-14T04:11:41.070Z,1.83
2017-11-14T04:14:08.543Z,2.23
2017-11-14T04:16:36.004Z,2.03
2017-11-14T04:19:03.707Z,2.40
2017-11-14T04:21:31.205Z,1.93
2017-11-14T04:23:58.683Z,1.83
2017-11-14T04:26:26.248Z,1.40
2017-11-14T04:28:53.712Z,1.93
2017-11-14T04:31:21.172Z,1.77
2017-11-14T04:33:48.643Z,2.50
2017-11-14T04:36:16.882Z,1.87
2017-11-14T04:38:44.341Z,1.57
2017-11-14T04:41:11.813Z,1.80
2017-11-14T04:43:39.280Z,2.03
2017-11-14T04:46:07.505Z,2.37
2017-11-14T04:48:34.994Z,2.10
2017-11-14T04:51:02.460Z,1.93
2017-11-14T04:53:30.017Z,2.20
2017-11-14T04:55:58.268Z,2.20
2017-11-14T04:58:25.742Z,2.50
2017-11-14T05:00:53.972Z,1.80
2017-11-14T05:03:21.878Z,2.60
2017-11-14T05:05:50.214Z,2.23
2017-11-14T05:08:17.727Z,1.97
2017-11-14T05:10:45.524Z,1.57
2017-11-14T05:13:13.000Z,1.33
2017-11-14T05:15:40.503Z,1.47
2017-11-14T05:18:07.975Z,1.83
2017-11-14T05:20:36.248Z,2.97
2017-11-14T05:23:04.470Z,2.07
2017-11-14T05:25:31.928Z,1.70
2017-11-14T05:27:59.408Z,3.17
2017-11-14T05:30:26.881Z,2.67
2017-11-14T05:32:55.858Z,3.80
2017-11-14T05:35:23.333Z,4.60
2017-11-14T05:37:50.815Z,3.70
2017-11-14T05:40:19.044Z,4.40
2017-11-14T05:42:47.293Z,4.80
2017-11-14T05:45:14.777Z,2.50
2017-11-14T05:47:42.244Z,3.73
2017-11-14T05:50:11.237Z,2.90
2017-11-14T05:52:38.710Z,2.37
2017-11-14T05:55:07.708Z,2.67
2017-11-14T05:57:36.820Z,2.20
2017-11-14T06:00:04.294Z,1.93
2017-11-14T06:02:31.756Z,1.67
2017-11-14T06:04:59.229Z,2.30
2017-11-14T06:07:26.738Z,1.47
2017-11-14T06:09:54.270Z,2.10
2017-11-14T06:12:22.580Z,2.37
2017-11-14T06:14:50.037Z,2.27
2017-11-14T06:17:17.487Z,2.50
2017-11-14T06:19:45.748Z,2.37
2017-11-14T06:22:13.209Z,2.10
2017-11-14T06:24:41.435Z,4.03
2017-11-14T06:27:08.924Z,2.00
2017-11-14T06:29:36.388Z,2.70
2017-11-14T06:32:03.838Z,2.30
2017-11-14T06:34:31.309Z,3.00
2017-11-14T06:36:59.545Z,3.00
2017-11-14T06:39:27.006Z,2.40
2017-11-14T06:41:54.499Z,1.90
2017-11-14T06:44:22.750Z,3.00
2017-11-14T06:46:50.988Z,2.53
2017-11-14T06:49:18.492Z,2.53
2017-11-14T06:51:46.002Z,2.70
2017-11-14T06:54:13.496Z,2.77
2017-11-14T06:56:41.743Z,2.67
2017-11-14T06:59:09.200Z,2.73
2017-11-14T07:01:37.570Z,2.20
2017-11-14T07:04:05.257Z,2.73
2017-11-14T07:06:32.741Z,3.33
2017-11-14T07:09:00.192Z,2.50
2017-11-14T07:11:28.071Z,3.30
2017-11-14T07:13:56.344Z,2.90
2017-11-14T07:16:24.629Z,2.73
2017-11-14T07:18:52.185Z,2.90
2017-11-14T07:21:20.427Z,2.93
2017-11-14T07:23:47.913Z,3.20
2017-11-14T07:26:16.169Z,3.10
2017-11-14T07:28:43.657Z,2.30
2017-11-14T07:31:11.152Z,4.23
2017-11-14T07:33:38.627Z,3.07
2017-11-14T07:36:06.116Z,2.90
2017-11-14T07:38:34.389Z,3.27
2017-11-14T07:41:02.665Z,3.40
2017-11-14T07:43:30.911Z,3.63
2017-11-14T07:45:58.372Z,4.53
2017-11-14T07:48:25.845Z,4.10
2017-11-14T07:50:53.328Z,4.20
2017-11-14T07:53:21.553Z,4.10
2017-11-14T07:55:49.170Z,3.87
2017-11-14T07:58:16.715Z,3.83
2017-11-14T08:00:44.967Z,4.70
2017-11-14T08:03:13.251Z,4.57
2017-11-14T08:05:40.709Z,3.83
2017-11-14T08:08:08.193Z,5.17
2017-11-14T08:10:35.676Z,4.37
2017-11-14T08:13:04.105Z,4.80
2017-11-14T08:15:32.380Z,4.60
2017-11-14T08:18:00.634Z,5.20
2017-11-14T08:20:28.220Z,5.57
2017-11-14T08:22:56.444Z,3.97
2017-11-14T08:25:23.945Z,5.23
2017-11-14T08:27:51.404Z,5.17
2017-11-14T08:30:19.644Z,4.60
2017-11-14T08:32:47.666Z,5.60
2017-11-14T08:35:15.189Z,5.23
2017-11-14T08:37:42.643Z,4.70
2017-11-14T08:40:10.120Z,5.83
2017-11-14T08:42:37.671Z,5.23
2017-11-14T08:45:05.172Z,5.93
2017-11-14T08:47:32.649Z,4.20
2017-11-14T08:50:00.152Z,5.00
2017-11-14T08:52:28.432Z,4.27
2017-11-14T08:54:56.680Z,5.73
2017-11-14T08:57:24.273Z,4.67
2017-11-14T08:59:52.528Z,5.23
2017-11-14T09:02:20.800Z,4.77
2017-11-14T09:04:48.274Z,5.30
2017-11-14T09:07:16.733Z,4.53
2017-11-14T09:09:45.017Z,4.67
2017-11-14T09:12:13.260Z,5.20
2017-11-14T09:14:40.711Z,4.87
2017-11-14T09:17:08.197Z,4.60
2017-11-14T09:19:35.669Z,5.00
2017-11-14T09:22:03.928Z,4.60
2017-11-14T09:24:32.937Z,4.90
2017-11-14T09:27:01.206Z,4.60
2017-11-14T09:29:28.704Z,4.93
2017-11-14T09:31:56.221Z,4.20
2017-11-14T09:34:23.684Z,4.43
2017-11-14T09:36:51.229Z,4.57
2017-11-14T09:39:18.715Z,4.30
2017-11-14T09:41:46.974Z,4.37
2017-11-14T09:44:15.372Z,3.93
2017-11-14T09:46:42.868Z,4.97
2017-11-14T09:49:10.343Z,4.57
2017-11-14T09:51:37.829Z,3.93
2017-11-14T09:54:06.075Z,3.60
2017-11-14T09:56:33.555Z,3.77
2017-11-14T09:59:01.785Z,4.47
2017-11-14T10:01:29.389Z,3.90
2017-11-14T10:03:57.620Z,2.67
2017-11-14T10:06:25.078Z,3.97
2017-11-14T10:08:52.558Z,4.00
2017-11-14T10:11:20.024Z,3.10
2017-11-14T10:13:47.475Z,4.30
2017-11-14T10:16:14.951Z,3.53
2017-11-14T10:18:42.407Z,3.73
2017-11-14T10:21:10.640Z,3.80
2017-11-14T10:23:38.124Z,3.67
2017-11-14T10:26:05.698Z,3.43
2017-11-14T10:28:33.948Z,4.30
2017-11-14T10:31:01.449Z,4.23
2017-11-14T10:33:29.697Z,4.10
2017-11-14T10:35:57.157Z,3.83
2017-11-14T10:38:25.396Z,4.93
2017-11-14T10:40:52.890Z,3.33
2017-11-14T10:43:20.357Z,3.50
2017-11-14T10:45:48.602Z,4.43
2017-11-14T10:48:16.057Z,3.90
2017-11-14T10:50:43.530Z,3.50
2017-11-14T10:53:11.001Z,3.53
2017-11-14T10:55:39.256Z,5.00
2017-11-14T10:58:06.712Z,3.30
2017-11-14T11:00:39.200Z,3.67
2017-11-14T11:03:07.458Z,4.50
2017-11-14T11:05:34.925Z,2.97
2017-11-14T11:08:02.408Z,3.33
2017-11-14T11:10:29.943Z,3.70
2017-11-14T11:12:57.418Z,3.13
2017-11-14T11:15:25.840Z,4.10
2017-11-14T11:17:53.337Z,3.80
2017-11-14T11:20:20.822Z,3.77
2017-11-14T11:22:48.411Z,5.07
2017-11-14T11:25:16.261Z,3.73
2017-11-14T11:27:43.736Z,4.13
2017-11-14T11:30:11.208Z,4.27
2017-11-14T11:32:38.684Z,3.37
2017-11-14T11:35:06.148Z,3.97
2017-11-14T11:37:33.624Z,4.37
2017-11-14T11:40:01.864Z,4.33
2017-11-14T11:42:29.340Z,4.53
2017-11-14T11:44:57.621Z,3.63
2017-11-14T11:47:27.361Z,3.70
2017-11-14T11:49:54.888Z,4.33
2017-11-14T11:52:23.206Z,3.80
2017-11-14T11:54:50.677Z,4.87
2017-11-14T11:57:18.164Z,4.80
2017-11-14T11:59:45.670Z,4.53
2017-11-14T12:02:13.202Z,4.13
2017-11-14T12:04:41.447Z,4.33
2017-11-14T12:07:08.954Z,3.80
2017-11-14T12:09:36.485Z,4.00
2017-11-14T12:12:04.709Z,3.27
2017-11-14T12:14:32.180Z,4.50
2017-11-14T12:16:59.646Z,5.50
2017-11-14T12:19:27.106Z,4.10
2017-11-14T12:21:54.573Z,4.50
2017-11-14T12:24:22.145Z,4.60
2017-11-14T12:26:49.696Z,4.07
2017-11-14T12:29:17.987Z,6.00
2017-11-14T12:31:45.507Z,4.70
2017-11-14T12:34:12.993Z,4.00
2017-11-14T12:36:41.243Z,3.60
2017-11-14T12:39:10.267Z,5.33
2017-11-14T12:41:38.505Z,4.80
2017-11-14T12:44:05.991Z,5.10
2017-11-14T12:46:33.541Z,4.97
2017-11-14T12:49:01.108Z,5.10
2017-11-14T12:51:28.665Z,4.57
2017-11-14T12:53:56.151Z,5.37
2017-11-14T12:56:23.641Z,5.50
2017-11-14T12:58:51.254Z,5.50
2017-11-14T13:01:19.504Z,4.80
2017-11-14T13:03:47.705Z,5.97
2017-11-14T13:06:15.953Z,4.67
2017-11-14T13:08:43.435Z,6.07
2017-11-14T13:11:11.678Z,5.70
2017-11-14T13:13:39.161Z,5.50
2017-11-14T13:16:07.387Z,6.10
2017-11-14T13:18:34.860Z,5.93
2017-11-14T13:21:02.464Z,5.60
2017-11-14T13:23:30.705Z,6.77
2017-11-14T13:25:58.289Z,6.80
2017-11-14T13:28:26.663Z,7.73
2017-11-14T13:30:54.905Z,8.37
2017-11-14T13:33:22.373Z,8.53
2017-11-14T13:35:49.877Z,8.40
2017-11-14T13:38:17.373Z,8.43
2017-11-14T13:40:44.849Z,9.30
2017-11-14T13:43:12.441Z,9.03
2017-11-14T13:45:39.915Z,8.57
2017-11-14T13:48:07.391Z,10.00
2017-11-14T13:50:34.890Z,9.13
2017-11-14T13:53:03.172Z,9.90
2017-11-14T13:55:31.417Z,9.70
2017-11-14T13:57:58.897Z,9.47
2017-11-14T14:00:26.378Z,11.67
2017-11-14T14:02:54.612Z,10.20
2017-11-14T14:05:22.212Z,12.40
2017-11-14T14:07:49.702Z,10.57
2017-11-14T14:10:17.187Z,12.70
2017-11-14T14:12:44.678Z,12.53
2017-11-14T14:15:12.962Z,13.20
2017-11-14T14:17:40.451Z,13.13
2017-11-14T14:20:07.956Z,10.33
2017-11-14T14:22:36.240Z,11.33
2017-11-14T14:25:04.469Z,13.70
2017-11-14T14:27:31.994Z,11.40
2017-11-14T14:29:59.537Z,12.63
2017-11-14T14:32:27.777Z,12.70
2017-11-14T14:34:56.020Z,11.90
2017-11-14T14:37:23.498Z,12.67
2017-11-14T14:39:50.976Z,12.57
2017-11-14T14:42:18.480Z,14.20
2017-11-14T14:44:45.956Z,13.37
2017-11-14T14:47:13.498Z,12.87
2017-11-14T14:49:41.104Z,15.47
2017-11-14T14:52:09.645Z,12.90
2017-11-14T14:54:38.032Z,13.67
2017-11-14T14:57:06.223Z,13.97
2017-11-14T14:59:33.958Z,13.60
2017-11-14T15:02:01.546Z,12.80
2017-11-14T15:04:29.076Z,14.60
2017-11-14T15:06:56.714Z,12.50
2017-11-14T15:09:24.943Z,14.27
2017-11-14T15:11:52.527Z,11.73
2017-11-14T15:14:20.018Z,10.77
2017-11-14T15:16:47.516Z,15.40
2017-11-14T15:19:15.098Z,14.17
2017-11-14T15:21:43.421Z,14.47
2017-11-14T15:24:10.912Z,16.43
2017-11-14T15:26:38.401Z,14.10
2017-11-14T15:29:07.308Z,15.20
2017-11-14T15:31:34.870Z,12.77
2017-11-14T15:34:02.448Z,14.63
2017-11-14T15:36:29.927Z,14.80
2017-11-14T15:38:57.415Z,15.10
2017-11-14T15:41:25.668Z,13.07
2017-11-14T15:43:53.141Z,14.10
2017-11-14T15:46:22.125Z,14.70
2017-11-14T15:48:51.143Z,14.93
2017-11-14T15:51:19.417Z,14.23
2017-11-14T15:53:47.652Z,17.37
2017-11-14T15:56:15.186Z,15.43
2017-11-14T15:58:42.661Z,13.97
2017-11-14T16:01:10.215Z,18.50
2017-11-14T16:03:37.939Z,17.33
2017-11-14T16:06:05.535Z,16.63
2017-11-14T16:08:33.140Z,15.83
2017-11-14T16:11:01.423Z,19.03
2017-11-14T16:13:29.680Z,16.70
2017-11-14T16:15:57.903Z,18.07
2017-11-14T16:18:26.674Z,18.80
2017-11-14T16:20:54.202Z,19.07
2017-11-14T16:23:21.743Z,19.90
2017-11-14T16:25:49.280Z,20.57
2017-11-14T16:28:16.812Z,17.53
2017-11-14T16:30:44.682Z,25.87
2017-11-14T16:33:12.206Z,21.23
2017-11-14T16:35:39.726Z,21.63
2017-11-14T16:38:07.276Z,21.30
2017-11-14T16:40:34.804Z,22.80
2017-11-14T16:43:02.427Z,22.40
2017-11-14T16:45:30.707Z,23.47
2017-11-14T16:47:58.333Z,24.37
2017-11-14T16:50:26.110Z,19.27
2017-11-14T16:52:55.096Z,19.53
2017-11-14T16:55:23.032Z,19.67
2017-11-14T16:57:50.616Z,20.80
2017-11-14T17:00:18.842Z,19.57
2017-11-14T17:02:47.101Z,18.30
2017-11-14T17:05:14.569Z,20.43
2017-11-14T17:07:42.062Z,18.70
2017-11-14T17:10:09.565Z,17.10
2017-11-14T17:12:37.026Z,17.57
2017-11-14T17:15:05.257Z,19.10
2017-11-14T17:17:32.776Z,19.77
2017-11-14T17:20:00.354Z,17.07
2017-11-14T17:22:28.608Z,16.67
2017-11-14T17:24:56.089Z,18.27
2017-11-14T17:27:24.342Z,19.63
2017-11-14T17:29:52.601Z,16.53
2017-11-14T17:32:20.974Z,19.70
2017-11-14T17:34:48.493Z,20.83
2017-11-14T17:37:15.980Z,21.60
2017-11-14T17:39:43.471Z,19.43
2017-11-14T17:42:10.978Z,26.53
2017-11-14T17:44:38.490Z,20.37
2017-11-14T17:47:06.757Z,19.80
2017-11-14T17:49:35.024Z,19.00
2017-11-14T17:52:02.502Z,18.67
2017-11-14T17:54:30.747Z,19.60
2017-11-14T17:56:58.232Z,20.67
2017-11-14T17:59:26.497Z,18.07
2017-11-14T18:01:54.078Z,18.97
2017-11-14T18:04:22.321Z,21.20
2017-11-14T18:06:49.814Z,19.90
2017-11-14T18:09:18.063Z,19.70
2017-11-14T18:11:45.556Z,19.10
2017-11-14T18:14:13.092Z,17.33
2017-11-14T18:16:42.229Z,17.37
2017-11-14T18:19:09.709Z,19.80
2017-11-14T18:21:37.568Z,18.10
2017-11-14T18:24:05.066Z,19.20
2017-11-14T18:26:34.181Z,18.10
2017-11-14T18:29:01.712Z,21.23
2017-11-14T18:31:29.197Z,19.03
2017-11-14T18:33:56.672Z,19.93
2017-11-14T18:36:24.152Z,20.60
2017-11-14T18:38:51.632Z,20.90
2017-11-14T18:41:19.134Z,22.50
2017-11-14T18:43:46.604Z,19.20
2017-11-14T18:46:14.088Z,21.03
2017-11-14T18:48:41.565Z,19.80
2017-11-14T18:51:09.045Z,18.37
2017-11-14T18:53:36.545Z,21.23
2017-11-14T18:56:04.048Z,19.53
2017-11-14T18:58:32.680Z,21.70
2017-11-14T19:01:00.156Z,22.13
2017-11-14T19:03:27.658Z,20.77
2017-11-14T19:05:55.913Z,21.70
2017-11-14T19:08:23.410Z,21.50
2017-11-14T19:10:50.997Z,20.00
2017-11-14T19:13:18.504Z,22.13
2017-11-14T19:15:46.772Z,22.40
2017-11-14T19:18:15.038Z,24.53
2017-11-14T19:20:43.637Z,22.93
2017-11-14T19:23:11.888Z,23.17
2017-11-14T19:25:40.405Z,21.90
2017-11-14T19:28:07.928Z,21.73
2017-11-14T19:30:35.453Z,23.83
2017-11-14T19:33:02.929Z,24.30
2017-11-14T19:35:31.128Z,23.30
2017-11-14T19:37:58.598Z,28.23
2017-11-14T19:40:26.901Z,23.00
2017-11-14T19:42:54.425Z,23.03
2017-11-14T19:45:22.681Z,24.43
2017-11-14T19:47:50.251Z,21.60
2017-11-14T19:50:17.738Z,23.20
2017-11-14T19:52:45.260Z,25.40
2017-11-14T19:55:13.512Z,24.77
2017-11-14T19:57:40.996Z,24.50
2017-11-14T20:00:08.545Z,24.80
2017-11-14T20:02:36.932Z,25.10
2017-11-14T20:05:04.412Z,24.30
2017-11-14T20:07:32.690Z,22.67
2017-11-14T20:10:00.174Z,25.10
2017-11-14T20:12:27.708Z,23.87
2017-11-14T20:14:56.893Z,22.80
2017-11-14T20:17:25.132Z,23.77
2017-11-14T20:19:52.623Z,22.17
2017-11-14T20:22:20.865Z,25.30
2017-11-14T20:24:48.339Z,25.83
2017-11-14T20:27:16.622Z,25.30
2017-11-14T20:29:44.101Z,24.37
2017-11-14T20:32:12.340Z,25.73
2017-11-14T20:34:39.840Z,26.50
2017-11-14T20:37:08.177Z,25.20
2017-11-14T20:39:36.482Z,33.40
2017-11-14T20:42:04.748Z,31.70
2017-11-14T20:44:33.105Z,29.10
2017-11-14T20:47:00.597Z,28.70
2017-11-14T20:49:28.121Z,30.57
2017-11-14T20:51:56.363Z,30.37
2017-11-14T20:54:25.838Z,33.60
2017-11-14T20:56:53.365Z,34.20
2017-11-14T20:59:21.620Z,33.70
2017-11-14T21:01:49.105Z,32.50
2017-11-14T21:04:17.369Z,33.20
2017-11-14T21:06:44.971Z,31.60
2017-11-14T21:09:12.533Z,35.97
2017-11-14T21:11:40.006Z,37.20
2017-11-14T21:14:07.490Z,38.03
2017-11-14T21:16:35.662Z,34.77
2017-11-14T21:19:03.141Z,40.07
2017-11-14T21:21:30.604Z,42.17
2017-11-14T21:23:58.845Z,36.87
2017-11-14T21:26:26.349Z,36.37
2017-11-14T21:28:55.333Z,37.70
2017-11-14T21:31:23.584Z,40.30
2017-11-14T21:33:51.682Z,35.80
2017-11-14T21:36:19.950Z,41.33
2017-11-14T21:38:48.202Z,39.10
2017-11-14T21:41:16.450Z,37.10
2017-11-14T21:43:43.980Z,37.23
2017-11-14T21:46:11.465Z,39.50
2017-11-14T21:48:38.998Z,41.90
2017-11-14T21:51:06.481Z,40.80
2017-11-14T21:53:35.090Z,35.60
2017-11-14T21:56:02.559Z,35.90
2017-11-14T21:58:30.045Z,39.40
2017-11-14T22:00:57.547Z,34.30
2017-11-14T22:03:25.054Z,40.17
2017-11-14T22:05:52.596Z,34.47
2017-11-14T22:08:20.866Z,44.17
2017-11-14T22:10:48.351Z,44.13
2017-11-14T22:13:15.886Z,42.60
2017-11-14T22:15:43.386Z,41.53
2017-11-14T22:18:10.872Z,40.57
2017-11-14T22:20:38.727Z,41.50
2017-11-14T22:23:07.126Z,40.70
2017-11-14T22:25:35.142Z,44.70
2017-11-14T22:28:02.616Z,42.37
2017-11-14T22:30:30.089Z,47.00
2017-11-14T22:32:57.560Z,38.00
2017-11-14T22:35:25.041Z,40.27
2017-11-14T22:37:53.288Z,44.47
2017-11-14T22:40:20.788Z,48.13
2017-11-14T22:42:49.028Z,44.00
2017-11-14T22:45:16.496Z,41.97
2017-11-14T22:47:43.961Z,43.80
2017-11-14T22:50:12.529Z,42.77
2017-11-14T22:52:40.454Z,42.97
2017-11-14T22:55:07.957Z,43.30
2017-11-14T22:57:35.436Z,41.83
2017-11-14T23:00:03.705Z,41.20
2017-11-14T23:02:31.973Z,41.43
2017-11-14T23:04:59.456Z,48.50
2017-11-14T23:07:27.712Z,39.00
2017-11-14T23:09:55.957Z,39.87
2017-11-14T23:12:23.445Z,42.63
2017-11-14T23:14:51.689Z,41.63
2017-11-14T23:17:19.183Z,41.30
2017-11-14T23:19:47.432Z,41.40
2017-11-14T23:22:14.959Z,35.77
2017-11-14T23:24:42.455Z,42.90
2017-11-14T23:27:09.953Z,39.50
2017-11-14T23:29:37.479Z,37.90
2017-11-14T23:32:04.986Z,43.43
2017-11-14T23:34:32.517Z,44.10
2017-11-14T23:37:00.053Z,39.07
2017-11-14T23:39:27.598Z,40.30
2017-11-14T23:41:55.110Z,35.17
2017-11-14T23:44:23.456Z,42.77
2017-11-14T23:46:51.723Z,38.90
2017-11-14T23:49:19.196Z,38.77
2017-11-14T23:51:47.433Z,41.47
2017-11-14T23:54:14.914Z,37.83
2017-11-14T23:56:43.194Z,45.43
2017-11-14T23:59:11.508Z,42.67
